sensor_id;sensor_type;location;lat;lon;timestamp;P1;durP1;ratioP1;P2;durP2;ratioP2
19605;SDS011;9950;50.168;8.210;2022-12-20T00:00:31;46.70;;;23.33;;
19605;SDS011;9950;50.168;8.210;2022-12-20T00:02:58;44.92;;;23.42;;
19605;SDS011;9950;50.168;8.210;2022-12-20T00:05:25;46.05;;;23.48;;
19605;SDS011;9950;50.168;8.210;2022-12-20T00:07:53;49.45;;;23.52;;
19605;SDS011;9950;50.168;8.210;2022-12-20T00:10:20;48.33;;;24.58;;
19605;SDS011;9950;50.168;8.210;2022-12-20T00:12:49;45.20;;;23.98;;
19605;SDS011;9950;50.168;8.210;2022-12-20T00:15:16;44.35;;;23.25;;
19605;SDS011;9950;50.168;8.210;2022-12-20T00:17:43;48.95;;;23.42;;
19605;SDS011;9950;50.168;8.210;2022-12-20T00:20:11;40.78;;;21.90;;
19605;SDS011;9950;50.168;8.210;2022-12-20T00:22:38;45.97;;;21.73;;
19605;SDS011;9950;50.168;8.210;2022-12-20T00:25:05;38.55;;;20.88;;
19605;SDS011;9950;50.168;8.210;2022-12-20T00:27:33;43.65;;;23.08;;
19605;SDS011;9950;50.168;8.210;2022-12-20T00:30:02;39.30;;;20.20;;
19605;SDS011;9950;50.168;8.210;2022-12-20T00:32:29;35.55;;;19.75;;
19605;SDS011;9950;50.168;8.210;2022-12-20T00:34:56;38.45;;;21.05;;
19605;SDS011;9950;50.168;8.210;2022-12-20T00:37:24;39.15;;;19.73;;
19605;SDS011;9950;50.168;8.210;2022-12-20T00:39:51;43.05;;;21.52;;
19605;SDS011;9950;50.168;8.210;2022-12-20T00:42:18;38.17;;;20.48;;
19605;SDS011;9950;50.168;8.210;2022-12-20T00:44:45;34.65;;;20.23;;
19605;SDS011;9950;50.168;8.210;2022-12-20T00:47:14;35.30;;;20.38;;
19605;SDS011;9950;50.168;8.210;2022-12-20T00:49:42;37.65;;;20.42;;
19605;SDS011;9950;50.168;8.210;2022-12-20T00:52:09;41.70;;;21.00;;
19605;SDS011;9950;50.168;8.210;2022-12-20T00:54:36;41.08;;;20.77;;
19605;SDS011;9950;50.168;8.210;2022-12-20T00:57:03;39.60;;;19.77;;
19605;SDS011;9950;50.168;8.210;2022-12-20T00:59:31;37.33;;;19.40;;
19605;SDS011;9950;50.168;8.210;2022-12-20T01:01:59;37.90;;;20.02;;
19605;SDS011;9950;50.168;8.210;2022-12-20T01:04:27;35.30;;;19.67;;
19605;SDS011;9950;50.168;8.210;2022-12-20T01:06:55;33.42;;;18.08;;
19605;SDS011;9950;50.168;8.210;2022-12-20T01:09:22;35.10;;;18.90;;
19605;SDS011;9950;50.168;8.210;2022-12-20T01:11:50;35.20;;;18.73;;
19605;SDS011;9950;50.168;8.210;2022-12-20T01:14:18;36.13;;;19.23;;
19605;SDS011;9950;50.168;8.210;2022-12-20T01:16:46;36.53;;;20.92;;
19605;SDS011;9950;50.168;8.210;2022-12-20T01:19:13;40.53;;;21.38;;
19605;SDS011;9950;50.168;8.210;2022-12-20T01:21:43;38.47;;;21.90;;
19605;SDS011;9950;50.168;8.210;2022-12-20T01:24:10;45.58;;;23.15;;
19605;SDS011;9950;50.168;8.210;2022-12-20T01:26:38;42.60;;;22.27;;
19605;SDS011;9950;50.168;8.210;2022-12-20T01:29:05;44.45;;;22.75;;
19605;SDS011;9950;50.168;8.210;2022-12-20T01:31:33;47.75;;;23.23;;
19605;SDS011;9950;50.168;8.210;2022-12-20T01:34:00;47.35;;;24.20;;
19605;SDS011;9950;50.168;8.210;2022-12-20T01:36:28;46.33;;;24.67;;
19605;SDS011;9950;50.168;8.210;2022-12-20T01:38:58;45.03;;;24.55;;
19605;SDS011;9950;50.168;8.210;2022-12-20T01:41:26;42.40;;;23.85;;
19605;SDS011;9950;50.168;8.210;2022-12-20T01:43:55;49.22;;;25.23;;
19605;SDS011;9950;50.168;8.210;2022-12-20T01:46:23;43.25;;;23.65;;
19605;SDS011;9950;50.168;8.210;2022-12-20T01:48:51;45.28;;;25.05;;
19605;SDS011;9950;50.168;8.210;2022-12-20T01:51:20;44.88;;;23.88;;
19605;SDS011;9950;50.168;8.210;2022-12-20T01:53:49;45.25;;;24.67;;
19605;SDS011;9950;50.168;8.210;2022-12-20T01:56:19;45.88;;;23.83;;
19605;SDS011;9950;50.168;8.210;2022-12-20T01:58:47;47.42;;;24.48;;
19605;SDS011;9950;50.168;8.210;2022-12-20T02:01:15;42.03;;;22.92;;
19605;SDS011;9950;50.168;8.210;2022-12-20T02:03:43;45.08;;;24.50;;
19605;SDS011;9950;50.168;8.210;2022-12-20T02:06:14;49.58;;;25.85;;
19605;SDS011;9950;50.168;8.210;2022-12-20T02:08:42;51.35;;;25.63;;
19605;SDS011;9950;50.168;8.210;2022-12-20T02:11:14;43.75;;;23.25;;
19605;SDS011;9950;50.168;8.210;2022-12-20T02:13:57;42.60;;;22.30;;
19605;SDS011;9950;50.168;8.210;2022-12-20T02:16:28;45.95;;;23.70;;
19605;SDS011;9950;50.168;8.210;2022-12-20T02:18:57;52.88;;;25.15;;
19605;SDS011;9950;50.168;8.210;2022-12-20T02:21:29;47.78;;;25.65;;
19605;SDS011;9950;50.168;8.210;2022-12-20T02:26:59;45.20;;;23.42;;
19605;SDS011;9950;50.168;8.210;2022-12-20T02:29:30;43.47;;;21.98;;
19605;SDS011;9950;50.168;8.210;2022-12-20T02:32:01;43.53;;;24.75;;
19605;SDS011;9950;50.168;8.210;2022-12-20T02:34:32;49.83;;;25.08;;
19605;SDS011;9950;50.168;8.210;2022-12-20T02:37:00;49.70;;;25.05;;
19605;SDS011;9950;50.168;8.210;2022-12-20T02:39:27;49.60;;;25.58;;
19605;SDS011;9950;50.168;8.210;2022-12-20T02:41:56;44.33;;;23.92;;
19605;SDS011;9950;50.168;8.210;2022-12-20T02:44:25;53.03;;;26.73;;
19605;SDS011;9950;50.168;8.210;2022-12-20T02:47:12;56.08;;;27.42;;
19605;SDS011;9950;50.168;8.210;2022-12-20T02:49:40;50.08;;;26.35;;
19605;SDS011;9950;50.168;8.210;2022-12-20T02:52:09;52.55;;;28.65;;
19605;SDS011;9950;50.168;8.210;2022-12-20T02:54:39;51.78;;;28.65;;
19605;SDS011;9950;50.168;8.210;2022-12-20T02:57:08;54.08;;;28.40;;
19605;SDS011;9950;50.168;8.210;2022-12-20T02:59:38;54.08;;;29.50;;
19605;SDS011;9950;50.168;8.210;2022-12-20T03:02:06;49.50;;;28.40;;
19605;SDS011;9950;50.168;8.210;2022-12-20T03:04:36;54.28;;;28.08;;
19605;SDS011;9950;50.168;8.210;2022-12-20T03:07:08;53.28;;;28.33;;
19605;SDS011;9950;50.168;8.210;2022-12-20T03:09:36;51.63;;;28.40;;
19605;SDS011;9950;50.168;8.210;2022-12-20T03:12:04;54.20;;;29.92;;
19605;SDS011;9950;50.168;8.210;2022-12-20T03:14:32;54.80;;;29.55;;
19605;SDS011;9950;50.168;8.210;2022-12-20T03:16:59;55.88;;;29.15;;
19605;SDS011;9950;50.168;8.210;2022-12-20T03:19:27;57.67;;;29.33;;
19605;SDS011;9950;50.168;8.210;2022-12-20T03:21:56;51.95;;;27.92;;
19605;SDS011;9950;50.168;8.210;2022-12-20T03:24:24;54.88;;;28.70;;
19605;SDS011;9950;50.168;8.210;2022-12-20T03:26:51;51.80;;;28.70;;
19605;SDS011;9950;50.168;8.210;2022-12-20T03:29:19;53.42;;;29.08;;
19605;SDS011;9950;50.168;8.210;2022-12-20T03:31:46;51.35;;;28.40;;
19605;SDS011;9950;50.168;8.210;2022-12-20T03:34:13;51.00;;;27.23;;
19605;SDS011;9950;50.168;8.210;2022-12-20T03:36:40;50.90;;;27.98;;
19605;SDS011;9950;50.168;8.210;2022-12-20T03:39:09;50.60;;;27.65;;
19605;SDS011;9950;50.168;8.210;2022-12-20T03:41:36;51.33;;;27.00;;
19605;SDS011;9950;50.168;8.210;2022-12-20T03:44:04;47.80;;;27.45;;
19605;SDS011;9950;50.168;8.210;2022-12-20T03:46:31;49.53;;;27.70;;
19605;SDS011;9950;50.168;8.210;2022-12-20T03:48:58;47.53;;;26.25;;
19605;SDS011;9950;50.168;8.210;2022-12-20T03:51:26;47.63;;;26.92;;
19605;SDS011;9950;50.168;8.210;2022-12-20T03:53:53;49.38;;;26.55;;
19605;SDS011;9950;50.168;8.210;2022-12-20T03:56:22;50.13;;;27.88;;
19605;SDS011;9950;50.168;8.210;2022-12-20T03:58:49;49.72;;;27.02;;
19605;SDS011;9950;50.168;8.210;2022-12-20T04:01:18;48.63;;;27.98;;
19605;SDS011;9950;50.168;8.210;2022-12-20T04:03:45;50.03;;;26.65;;
19605;SDS011;9950;50.168;8.210;2022-12-20T04:06:12;50.95;;;27.40;;
19605;SDS011;9950;50.168;8.210;2022-12-20T04:08:39;48.97;;;27.60;;
19605;SDS011;9950;50.168;8.210;2022-12-20T04:11:07;50.40;;;26.75;;
19605;SDS011;9950;50.168;8.210;2022-12-20T04:13:45;44.80;;;25.08;;
19605;SDS011;9950;50.168;8.210;2022-12-20T04:16:14;47.17;;;25.48;;
19605;SDS011;9950;50.168;8.210;2022-12-20T04:18:41;51.47;;;25.50;;
19605;SDS011;9950;50.168;8.210;2022-12-20T04:21:09;44.90;;;23.88;;
19605;SDS011;9950;50.168;8.210;2022-12-20T04:23:38;44.92;;;23.85;;
19605;SDS011;9950;50.168;8.210;2022-12-20T04:26:05;43.78;;;23.60;;
19605;SDS011;9950;50.168;8.210;2022-12-20T04:28:36;40.80;;;23.48;;
19605;SDS011;9950;50.168;8.210;2022-12-20T04:31:04;39.78;;;22.88;;
19605;SDS011;9950;50.168;8.210;2022-12-20T04:33:32;42.88;;;22.25;;
19605;SDS011;9950;50.168;8.210;2022-12-20T04:35:59;39.42;;;23.40;;
19605;SDS011;9950;50.168;8.210;2022-12-20T04:38:26;42.58;;;23.95;;
19605;SDS011;9950;50.168;8.210;2022-12-20T04:40:54;43.25;;;24.42;;
19605;SDS011;9950;50.168;8.210;2022-12-20T04:43:22;42.97;;;23.10;;
19605;SDS011;9950;50.168;8.210;2022-12-20T04:45:50;44.00;;;24.02;;
19605;SDS011;9950;50.168;8.210;2022-12-20T04:48:19;45.00;;;24.85;;
19605;SDS011;9950;50.168;8.210;2022-12-20T04:50:46;41.75;;;23.92;;
19605;SDS011;9950;50.168;8.210;2022-12-20T04:53:14;39.10;;;22.85;;
19605;SDS011;9950;50.168;8.210;2022-12-20T04:55:59;42.45;;;23.17;;
19605;SDS011;9950;50.168;8.210;2022-12-20T04:58:27;40.35;;;23.33;;
19605;SDS011;9950;50.168;8.210;2022-12-20T05:00:54;45.20;;;24.63;;
19605;SDS011;9950;50.168;8.210;2022-12-20T05:03:23;50.35;;;24.38;;
19605;SDS011;9950;50.168;8.210;2022-12-20T05:05:51;43.30;;;25.17;;
19605;SDS011;9950;50.168;8.210;2022-12-20T05:08:19;43.00;;;25.25;;
19605;SDS011;9950;50.168;8.210;2022-12-20T05:10:46;41.88;;;25.63;;
19605;SDS011;9950;50.168;8.210;2022-12-20T05:13:14;40.10;;;24.35;;
19605;SDS011;9950;50.168;8.210;2022-12-20T05:15:41;41.55;;;23.85;;
19605;SDS011;9950;50.168;8.210;2022-12-20T05:18:09;42.05;;;25.13;;
19605;SDS011;9950;50.168;8.210;2022-12-20T05:20:38;42.92;;;23.90;;
19605;SDS011;9950;50.168;8.210;2022-12-20T05:23:05;45.45;;;23.90;;
19605;SDS011;9950;50.168;8.210;2022-12-20T05:25:52;42.80;;;23.25;;
19605;SDS011;9950;50.168;8.210;2022-12-20T05:28:37;44.70;;;24.40;;
19605;SDS011;9950;50.168;8.210;2022-12-20T05:31:04;46.20;;;25.67;;
19605;SDS011;9950;50.168;8.210;2022-12-20T05:33:32;39.97;;;23.35;;
19605;SDS011;9950;50.168;8.210;2022-12-20T05:36:00;43.45;;;25.00;;
19605;SDS011;9950;50.168;8.210;2022-12-20T05:38:28;40.55;;;24.48;;
19605;SDS011;9950;50.168;8.210;2022-12-20T05:40:55;43.13;;;23.83;;
19605;SDS011;9950;50.168;8.210;2022-12-20T05:43:23;40.55;;;23.25;;
19605;SDS011;9950;50.168;8.210;2022-12-20T05:45:51;45.58;;;23.98;;
19605;SDS011;9950;50.168;8.210;2022-12-20T05:48:19;44.85;;;23.52;;
19605;SDS011;9950;50.168;8.210;2022-12-20T05:50:46;43.15;;;22.90;;
19605;SDS011;9950;50.168;8.210;2022-12-20T05:53:16;39.72;;;22.90;;
19605;SDS011;9950;50.168;8.210;2022-12-20T05:55:43;42.20;;;23.33;;
19605;SDS011;9950;50.168;8.210;2022-12-20T05:58:11;41.92;;;23.52;;
19605;SDS011;9950;50.168;8.210;2022-12-20T06:00:39;43.53;;;25.10;;
19605;SDS011;9950;50.168;8.210;2022-12-20T06:03:06;43.03;;;24.20;;
19605;SDS011;9950;50.168;8.210;2022-12-20T06:05:37;44.50;;;23.40;;
19605;SDS011;9950;50.168;8.210;2022-12-20T06:08:05;37.30;;;23.15;;
19605;SDS011;9950;50.168;8.210;2022-12-20T06:10:35;38.83;;;21.75;;
19605;SDS011;9950;50.168;8.210;2022-12-20T06:13:03;40.63;;;21.80;;
19605;SDS011;9950;50.168;8.210;2022-12-20T06:15:30;38.97;;;22.20;;
19605;SDS011;9950;50.168;8.210;2022-12-20T06:17:58;42.13;;;23.42;;
19605;SDS011;9950;50.168;8.210;2022-12-20T06:20:25;37.53;;;21.60;;
19605;SDS011;9950;50.168;8.210;2022-12-20T06:22:53;41.75;;;21.67;;
19605;SDS011;9950;50.168;8.210;2022-12-20T06:25:20;40.38;;;21.92;;
19605;SDS011;9950;50.168;8.210;2022-12-20T06:27:49;40.35;;;21.48;;
19605;SDS011;9950;50.168;8.210;2022-12-20T06:30:16;37.67;;;21.35;;
19605;SDS011;9950;50.168;8.210;2022-12-20T06:32:44;39.50;;;21.75;;
19605;SDS011;9950;50.168;8.210;2022-12-20T06:35:11;36.60;;;21.60;;
19605;SDS011;9950;50.168;8.210;2022-12-20T06:37:38;40.42;;;21.48;;
19605;SDS011;9950;50.168;8.210;2022-12-20T06:40:06;33.90;;;19.95;;
19605;SDS011;9950;50.168;8.210;2022-12-20T06:42:34;37.72;;;21.17;;
19605;SDS011;9950;50.168;8.210;2022-12-20T06:45:03;33.65;;;20.63;;
19605;SDS011;9950;50.168;8.210;2022-12-20T06:47:30;35.05;;;19.80;;
19605;SDS011;9950;50.168;8.210;2022-12-20T06:49:58;38.20;;;21.30;;
19605;SDS011;9950;50.168;8.210;2022-12-20T06:52:25;34.65;;;19.70;;
19605;SDS011;9950;50.168;8.210;2022-12-20T06:54:52;30.75;;;19.95;;
19605;SDS011;9950;50.168;8.210;2022-12-20T06:57:19;35.92;;;19.77;;
19605;SDS011;9950;50.168;8.210;2022-12-20T06:59:47;37.05;;;21.05;;
19605;SDS011;9950;50.168;8.210;2022-12-20T07:02:15;38.08;;;19.90;;
19605;SDS011;9950;50.168;8.210;2022-12-20T07:04:43;36.97;;;20.55;;
19605;SDS011;9950;50.168;8.210;2022-12-20T07:07:10;37.47;;;20.80;;
19605;SDS011;9950;50.168;8.210;2022-12-20T07:09:38;32.55;;;19.00;;
19605;SDS011;9950;50.168;8.210;2022-12-20T07:12:07;39.95;;;21.10;;
19605;SDS011;9950;50.168;8.210;2022-12-20T07:14:34;32.75;;;19.27;;
19605;SDS011;9950;50.168;8.210;2022-12-20T07:17:02;30.48;;;18.65;;
19605;SDS011;9950;50.168;8.210;2022-12-20T07:19:30;32.47;;;18.70;;
19605;SDS011;9950;50.168;8.210;2022-12-20T07:21:58;32.08;;;18.73;;
19605;SDS011;9950;50.168;8.210;2022-12-20T07:24:25;29.38;;;16.58;;
19605;SDS011;9950;50.168;8.210;2022-12-20T07:26:52;31.35;;;16.38;;
19605;SDS011;9950;50.168;8.210;2022-12-20T07:29:20;29.80;;;16.80;;
19605;SDS011;9950;50.168;8.210;2022-12-20T07:31:47;25.83;;;15.65;;
19605;SDS011;9950;50.168;8.210;2022-12-20T07:34:14;29.40;;;15.75;;
19605;SDS011;9950;50.168;8.210;2022-12-20T07:36:43;27.05;;;16.00;;
19605;SDS011;9950;50.168;8.210;2022-12-20T07:39:10;26.58;;;15.55;;
19605;SDS011;9950;50.168;8.210;2022-12-20T07:41:38;26.70;;;16.48;;
19605;SDS011;9950;50.168;8.210;2022-12-20T07:44:05;29.20;;;15.48;;
19605;SDS011;9950;50.168;8.210;2022-12-20T07:46:32;28.30;;;16.58;;
19605;SDS011;9950;50.168;8.210;2022-12-20T07:49:00;24.63;;;15.38;;
19605;SDS011;9950;50.168;8.210;2022-12-20T07:51:28;27.40;;;16.40;;
19605;SDS011;9950;50.168;8.210;2022-12-20T07:53:59;28.85;;;17.17;;
19605;SDS011;9950;50.168;8.210;2022-12-20T07:56:28;28.42;;;16.55;;
19605;SDS011;9950;50.168;8.210;2022-12-20T07:58:56;26.45;;;16.20;;
19605;SDS011;9950;50.168;8.210;2022-12-20T08:01:25;29.63;;;16.63;;
19605;SDS011;9950;50.168;8.210;2022-12-20T08:03:55;25.60;;;15.10;;
19605;SDS011;9950;50.168;8.210;2022-12-20T08:06:24;29.08;;;16.83;;
19605;SDS011;9950;50.168;8.210;2022-12-20T08:08:52;24.70;;;14.25;;
19605;SDS011;9950;50.168;8.210;2022-12-20T08:11:22;29.08;;;15.93;;
19605;SDS011;9950;50.168;8.210;2022-12-20T08:13:50;27.05;;;16.35;;
19605;SDS011;9950;50.168;8.210;2022-12-20T08:16:18;26.23;;;16.38;;
19605;SDS011;9950;50.168;8.210;2022-12-20T08:18:45;27.70;;;15.77;;
19605;SDS011;9950;50.168;8.210;2022-12-20T08:21:12;25.58;;;15.45;;
19605;SDS011;9950;50.168;8.210;2022-12-20T08:23:40;25.08;;;15.27;;
19605;SDS011;9950;50.168;8.210;2022-12-20T08:26:07;25.02;;;15.57;;
19605;SDS011;9950;50.168;8.210;2022-12-20T08:28:36;27.65;;;16.15;;
19605;SDS011;9950;50.168;8.210;2022-12-20T08:31:04;24.00;;;14.50;;
19605;SDS011;9950;50.168;8.210;2022-12-20T08:33:32;28.20;;;15.77;;
19605;SDS011;9950;50.168;8.210;2022-12-20T08:36:00;27.75;;;15.38;;
19605;SDS011;9950;50.168;8.210;2022-12-20T08:38:28;26.23;;;16.02;;
19605;SDS011;9950;50.168;8.210;2022-12-20T08:41:00;27.38;;;15.95;;
19605;SDS011;9950;50.168;8.210;2022-12-20T08:43:27;26.75;;;15.65;;
19605;SDS011;9950;50.168;8.210;2022-12-20T08:45:56;25.77;;;15.50;;
19605;SDS011;9950;50.168;8.210;2022-12-20T08:48:25;28.92;;;15.88;;
19605;SDS011;9950;50.168;8.210;2022-12-20T08:50:55;27.58;;;16.05;;
19605;SDS011;9950;50.168;8.210;2022-12-20T08:53:23;26.75;;;15.32;;
19605;SDS011;9950;50.168;8.210;2022-12-20T08:55:50;24.33;;;15.00;;
19605;SDS011;9950;50.168;8.210;2022-12-20T08:58:18;26.33;;;15.73;;
19605;SDS011;9950;50.168;8.210;2022-12-20T09:00:45;26.85;;;15.88;;
19605;SDS011;9950;50.168;8.210;2022-12-20T09:03:14;26.52;;;16.08;;
19605;SDS011;9950;50.168;8.210;2022-12-20T09:05:45;29.50;;;17.10;;
19605;SDS011;9950;50.168;8.210;2022-12-20T09:08:13;30.38;;;15.93;;
19605;SDS011;9950;50.168;8.210;2022-12-20T09:10:41;23.98;;;16.05;;
19605;SDS011;9950;50.168;8.210;2022-12-20T09:13:08;25.10;;;15.10;;
19605;SDS011;9950;50.168;8.210;2022-12-20T09:15:35;26.13;;;15.13;;
19605;SDS011;9950;50.168;8.210;2022-12-20T09:18:03;25.08;;;15.35;;
19605;SDS011;9950;50.168;8.210;2022-12-20T09:20:32;24.15;;;15.02;;
19605;SDS011;9950;50.168;8.210;2022-12-20T09:22:59;25.75;;;15.30;;
19605;SDS011;9950;50.168;8.210;2022-12-20T09:25:26;25.23;;;16.30;;
19605;SDS011;9950;50.168;8.210;2022-12-20T09:27:54;24.15;;;13.38;;
19605;SDS011;9950;50.168;8.210;2022-12-20T09:30:21;25.73;;;14.85;;
19605;SDS011;9950;50.168;8.210;2022-12-20T09:32:49;21.63;;;14.55;;
19605;SDS011;9950;50.168;8.210;2022-12-20T09:35:16;25.52;;;15.23;;
19605;SDS011;9950;50.168;8.210;2022-12-20T09:37:45;25.08;;;14.27;;
19605;SDS011;9950;50.168;8.210;2022-12-20T09:40:13;25.27;;;15.45;;
19605;SDS011;9950;50.168;8.210;2022-12-20T09:42:43;22.08;;;14.68;;
19605;SDS011;9950;50.168;8.210;2022-12-20T09:45:11;22.30;;;13.63;;
19605;SDS011;9950;50.168;8.210;2022-12-20T09:47:41;21.58;;;13.35;;
19605;SDS011;9950;50.168;8.210;2022-12-20T09:50:12;23.08;;;14.05;;
19605;SDS011;9950;50.168;8.210;2022-12-20T09:52:49;22.70;;;13.68;;
19605;SDS011;9950;50.168;8.210;2022-12-20T09:55:22;21.38;;;13.48;;
19605;SDS011;9950;50.168;8.210;2022-12-20T09:57:54;21.23;;;13.07;;
19605;SDS011;9950;50.168;8.210;2022-12-20T10:00:24;22.60;;;13.30;;
19605;SDS011;9950;50.168;8.210;2022-12-20T10:02:52;18.92;;;12.95;;
19605;SDS011;9950;50.168;8.210;2022-12-20T10:05:21;19.80;;;12.40;;
19605;SDS011;9950;50.168;8.210;2022-12-20T10:07:54;18.73;;;11.38;;
19605;SDS011;9950;50.168;8.210;2022-12-20T10:13:06;19.45;;;11.65;;
19605;SDS011;9950;50.168;8.210;2022-12-20T10:15:37;17.60;;;11.73;;
19605;SDS011;9950;50.168;8.210;2022-12-20T10:18:27;19.95;;;12.45;;
19605;SDS011;9950;50.168;8.210;2022-12-20T10:20:56;18.92;;;11.90;;
19605;SDS011;9950;50.168;8.210;2022-12-20T10:23:29;21.15;;;11.90;;
19605;SDS011;9950;50.168;8.210;2022-12-20T10:26:04;20.67;;;12.43;;
19605;SDS011;9950;50.168;8.210;2022-12-20T10:28:34;18.70;;;11.25;;
19605;SDS011;9950;50.168;8.210;2022-12-20T10:31:02;21.23;;;11.93;;
19605;SDS011;9950;50.168;8.210;2022-12-20T10:33:31;16.98;;;10.80;;
19605;SDS011;9950;50.168;8.210;2022-12-20T10:36:21;17.92;;;11.43;;
19605;SDS011;9950;50.168;8.210;2022-12-20T10:38:52;21.63;;;12.35;;
19605;SDS011;9950;50.168;8.210;2022-12-20T10:41:20;17.85;;;10.98;;
19605;SDS011;9950;50.168;8.210;2022-12-20T10:43:48;17.40;;;11.10;;
19605;SDS011;9950;50.168;8.210;2022-12-20T10:46:17;18.83;;;11.25;;
19605;SDS011;9950;50.168;8.210;2022-12-20T10:48:45;19.27;;;11.23;;
19605;SDS011;9950;50.168;8.210;2022-12-20T10:51:13;16.75;;;10.70;;
19605;SDS011;9950;50.168;8.210;2022-12-20T10:53:53;16.13;;;10.35;;
19605;SDS011;9950;50.168;8.210;2022-12-20T10:56:22;16.95;;;10.88;;
19605;SDS011;9950;50.168;8.210;2022-12-20T10:58:52;18.45;;;11.23;;
19605;SDS011;9950;50.168;8.210;2022-12-20T11:01:20;18.73;;;11.35;;
19605;SDS011;9950;50.168;8.210;2022-12-20T11:03:52;15.05;;;10.82;;
19605;SDS011;9950;50.168;8.210;2022-12-20T11:06:20;19.52;;;11.60;;
19605;SDS011;9950;50.168;8.210;2022-12-20T11:08:52;20.15;;;11.75;;
19605;SDS011;9950;50.168;8.210;2022-12-20T11:11:20;17.13;;;10.80;;
19605;SDS011;9950;50.168;8.210;2022-12-20T11:13:48;18.40;;;11.10;;
19605;SDS011;9950;50.168;8.210;2022-12-20T11:16:23;16.42;;;10.88;;
19605;SDS011;9950;50.168;8.210;2022-12-20T11:18:54;16.27;;;11.05;;
19605;SDS011;9950;50.168;8.210;2022-12-20T11:21:25;15.75;;;10.45;;
19605;SDS011;9950;50.168;8.210;2022-12-20T11:23:58;18.55;;;10.35;;
19605;SDS011;9950;50.168;8.210;2022-12-20T11:26:30;15.00;;;9.93;;
19605;SDS011;9950;50.168;8.210;2022-12-20T11:29:05;14.00;;;9.68;;
19605;SDS011;9950;50.168;8.210;2022-12-20T11:31:39;17.60;;;10.70;;
19605;SDS011;9950;50.168;8.210;2022-12-20T11:34:12;17.48;;;10.25;;
19605;SDS011;9950;50.168;8.210;2022-12-20T11:36:49;16.13;;;9.88;;
19605;SDS011;9950;50.168;8.210;2022-12-20T11:39:23;13.32;;;9.10;;
19605;SDS011;9950;50.168;8.210;2022-12-20T11:41:54;17.08;;;9.60;;
19605;SDS011;9950;50.168;8.210;2022-12-20T11:44:25;15.98;;;9.68;;
19605;SDS011;9950;50.168;8.210;2022-12-20T11:47:01;14.98;;;9.10;;
19605;SDS011;9950;50.168;8.210;2022-12-20T11:49:36;13.45;;;8.77;;
19605;SDS011;9950;50.168;8.210;2022-12-20T11:52:09;13.13;;;9.10;;
19605;SDS011;9950;50.168;8.210;2022-12-20T11:54:42;18.02;;;10.30;;
19605;SDS011;9950;50.168;8.210;2022-12-20T11:57:11;14.52;;;9.18;;
19605;SDS011;9950;50.168;8.210;2022-12-20T11:59:41;14.25;;;8.05;;
19605;SDS011;9950;50.168;8.210;2022-12-20T12:02:11;14.48;;;7.20;;
19605;SDS011;9950;50.168;8.210;2022-12-20T12:04:40;9.63;;;7.10;;
19605;SDS011;9950;50.168;8.210;2022-12-20T12:07:10;9.98;;;7.32;;
19605;SDS011;9950;50.168;8.210;2022-12-20T12:09:39;12.07;;;7.60;;
19605;SDS011;9950;50.168;8.210;2022-12-20T12:12:09;11.20;;;6.28;;
19605;SDS011;9950;50.168;8.210;2022-12-20T12:14:42;9.93;;;6.47;;
19605;SDS011;9950;50.168;8.210;2022-12-20T12:17:12;11.40;;;6.68;;
19605;SDS011;9950;50.168;8.210;2022-12-20T12:19:42;11.75;;;5.82;;
19605;SDS011;9950;50.168;8.210;2022-12-20T12:22:13;10.38;;;6.78;;
19605;SDS011;9950;50.168;8.210;2022-12-20T12:24:44;12.25;;;6.60;;
19605;SDS011;9950;50.168;8.210;2022-12-20T12:27:18;10.82;;;6.22;;
19605;SDS011;9950;50.168;8.210;2022-12-20T12:29:47;9.00;;;5.50;;
19605;SDS011;9950;50.168;8.210;2022-12-20T12:32:16;11.30;;;5.50;;
19605;SDS011;9950;50.168;8.210;2022-12-20T12:34:49;8.02;;;5.13;;
19605;SDS011;9950;50.168;8.210;2022-12-20T12:37:34;10.77;;;5.00;;
19605;SDS011;9950;50.168;8.210;2022-12-20T12:45:35;9.25;;;5.90;;
19605;SDS011;9950;50.168;8.210;2022-12-20T12:48:03;11.63;;;6.80;;
19605;SDS011;9950;50.168;8.210;2022-12-20T12:50:34;12.82;;;6.53;;
19605;SDS011;9950;50.168;8.210;2022-12-20T12:53:03;10.52;;;6.40;;
19605;SDS011;9950;50.168;8.210;2022-12-20T12:55:37;9.70;;;6.40;;
19605;SDS011;9950;50.168;8.210;2022-12-20T13:00:58;11.38;;;6.35;;
19605;SDS011;9950;50.168;8.210;2022-12-20T13:03:37;8.27;;;5.57;;
19605;SDS011;9950;50.168;8.210;2022-12-20T13:09:08;9.32;;;5.97;;
19605;SDS011;9950;50.168;8.210;2022-12-20T13:11:36;11.30;;;6.88;;
19605;SDS011;9950;50.168;8.210;2022-12-20T13:14:11;12.98;;;7.05;;
19605;SDS011;9950;50.168;8.210;2022-12-20T13:19:47;9.75;;;6.45;;
19605;SDS011;9950;50.168;8.210;2022-12-20T13:22:18;10.40;;;6.13;;
19605;SDS011;9950;50.168;8.210;2022-12-20T13:24:49;9.80;;;5.68;;
19605;SDS011;9950;50.168;8.210;2022-12-20T13:27:21;10.55;;;6.65;;
19605;SDS011;9950;50.168;8.210;2022-12-20T13:29:53;7.93;;;5.32;;
19605;SDS011;9950;50.168;8.210;2022-12-20T13:37:54;9.05;;;5.75;;
19605;SDS011;9950;50.168;8.210;2022-12-20T13:40:29;8.13;;;5.50;;
19605;SDS011;9950;50.168;8.210;2022-12-20T13:42:58;8.95;;;5.30;;
19605;SDS011;9950;50.168;8.210;2022-12-20T13:45:28;11.02;;;5.20;;
19605;SDS011;9950;50.168;8.210;2022-12-20T13:47:57;7.65;;;5.03;;
19605;SDS011;9950;50.168;8.210;2022-12-20T13:50:32;7.25;;;4.43;;
19605;SDS011;9950;50.168;8.210;2022-12-20T13:53:04;9.00;;;4.90;;
19605;SDS011;9950;50.168;8.210;2022-12-20T13:55:33;6.05;;;4.70;;
19605;SDS011;9950;50.168;8.210;2022-12-20T13:58:04;6.15;;;3.90;;
19605;SDS011;9950;50.168;8.210;2022-12-20T14:00:32;6.13;;;4.65;;
19605;SDS011;9950;50.168;8.210;2022-12-20T14:03:00;5.68;;;3.70;;
19605;SDS011;9950;50.168;8.210;2022-12-20T14:05:31;7.25;;;3.95;;
19605;SDS011;9950;50.168;8.210;2022-12-20T14:07:59;5.63;;;4.15;;
19605;SDS011;9950;50.168;8.210;2022-12-20T14:10:29;7.13;;;4.15;;
19605;SDS011;9950;50.168;8.210;2022-12-20T14:12:57;6.40;;;4.32;;
19605;SDS011;9950;50.168;8.210;2022-12-20T14:15:26;7.53;;;3.83;;
19605;SDS011;9950;50.168;8.210;2022-12-20T14:17:53;8.38;;;4.40;;
19605;SDS011;9950;50.168;8.210;2022-12-20T14:20:22;7.05;;;4.15;;
19605;SDS011;9950;50.168;8.210;2022-12-20T14:22:52;6.00;;;4.05;;
19605;SDS011;9950;50.168;8.210;2022-12-20T14:25:22;6.75;;;4.30;;
19605;SDS011;9950;50.168;8.210;2022-12-20T14:27:53;7.75;;;4.38;;
19605;SDS011;9950;50.168;8.210;2022-12-20T14:30:25;6.75;;;4.38;;
19605;SDS011;9950;50.168;8.210;2022-12-20T14:32:53;8.07;;;4.75;;
19605;SDS011;9950;50.168;8.210;2022-12-20T14:35:20;8.25;;;5.28;;
19605;SDS011;9950;50.168;8.210;2022-12-20T14:37:51;6.90;;;4.50;;
19605;SDS011;9950;50.168;8.210;2022-12-20T14:40:19;9.77;;;4.95;;
19605;SDS011;9950;50.168;8.210;2022-12-20T14:42:47;8.45;;;5.40;;
19605;SDS011;9950;50.168;8.210;2022-12-20T14:45:20;7.18;;;5.22;;
19605;SDS011;9950;50.168;8.210;2022-12-20T14:47:48;8.77;;;5.05;;
19605;SDS011;9950;50.168;8.210;2022-12-20T14:50:21;7.53;;;5.20;;
19605;SDS011;9950;50.168;8.210;2022-12-20T14:52:49;9.80;;;5.57;;
19605;SDS011;9950;50.168;8.210;2022-12-20T14:55:16;9.55;;;5.72;;
19605;SDS011;9950;50.168;8.210;2022-12-20T14:57:45;7.57;;;5.35;;
19605;SDS011;9950;50.168;8.210;2022-12-20T15:00:20;11.35;;;5.85;;
19605;SDS011;9950;50.168;8.210;2022-12-20T15:02:56;8.55;;;5.90;;
19605;SDS011;9950;50.168;8.210;2022-12-20T15:08:10;9.20;;;5.68;;
19605;SDS011;9950;50.168;8.210;2022-12-20T15:10:38;9.43;;;5.63;;
19605;SDS011;9950;50.168;8.210;2022-12-20T15:13:09;9.55;;;5.80;;
19605;SDS011;9950;50.168;8.210;2022-12-20T15:15:39;8.40;;;4.68;;
19605;SDS011;9950;50.168;8.210;2022-12-20T15:18:09;8.02;;;5.25;;